sensor_id;sensor_type;location;lat;lon;timestamp;pressure;altitude;pressure_sealevel;temperature;humidity
63700;BME280;49845;47.130;142.766;2022-08-19T00:01:54;99630.56;;;23.93;64.12
63700;BME280;49845;47.130;142.766;2022-08-19T00:05:14;99625.91;;;24.06;64.16
63700;BME280;49845;47.130;142.766;2022-08-19T00:19:12;99594.56;;;24.20;62.79
63700;BME280;49845;47.130;142.766;2022-08-19T00:22:08;99583.88;;;24.20;61.68
63700;BME280;49845;47.130;142.766;2022-08-19T00:24:56;99588.69;;;24.26;62.53
63700;BME280;49845;47.130;142.766;2022-08-19T00:31:04;99553.94;;;24.37;60.66
63700;BME280;49845;47.130;142.766;2022-08-19T00:34:08;99544.09;;;24.38;61.60
63700;BME280;49845;47.130;142.766;2022-08-19T00:37:21;99542.50;;;24.46;60.43
63700;BME280;49845;47.130;142.766;2022-08-19T00:40:43;99536.63;;;24.52;60.08
63700;BME280;49845;47.130;142.766;2022-08-19T00:44:10;99521.75;;;24.60;60.12
63700;BME280;49845;47.130;142.766;2022-08-19T00:50:39;99537.88;;;24.79;59.78
63700;BME280;49845;47.130;142.766;2022-08-19T00:53:49;99510.56;;;24.75;59.02
63700;BME280;49845;47.130;142.766;2022-08-19T00:57:09;99522.75;;;24.89;58.29
63700;BME280;49845;47.130;142.766;2022-08-19T01:00:05;99526.13;;;24.91;58.93
63700;BME280;49845;47.130;142.766;2022-08-19T01:03:10;99535.75;;;25.04;58.37
63700;BME280;49845;47.130;142.766;2022-08-19T01:06:48;99524.13;;;24.93;58.15
63700;BME280;49845;47.130;142.766;2022-08-19T01:13:38;99534.34;;;25.09;57.88
63700;BME280;49845;47.130;142.766;2022-08-19T01:20:06;99532.09;;;25.14;56.57
63700;BME280;49845;47.130;142.766;2022-08-19T01:23:35;99517.03;;;25.04;56.81
63700;BME280;49845;47.130;142.766;2022-08-19T01:27:07;99529.06;;;25.19;56.99
63700;BME280;49845;47.130;142.766;2022-08-19T01:41:46;99460.34;;;25.10;56.08
63700;BME280;49845;47.130;142.766;2022-08-19T01:45:10;99480.69;;;25.42;55.61
63700;BME280;49845;47.130;142.766;2022-08-19T01:48:03;99437.88;;;25.22;55.43
63700;BME280;49845;47.130;142.766;2022-08-19T01:51:00;99466.31;;;25.43;54.74
63700;BME280;49845;47.130;142.766;2022-08-19T01:53:47;99464.66;;;25.42;55.41
63700;BME280;49845;47.130;142.766;2022-08-19T01:56:33;99463.78;;;25.51;54.75
63700;BME280;49845;47.130;142.766;2022-08-19T01:59:17;99457.75;;;25.49;54.89
63700;BME280;49845;47.130;142.766;2022-08-19T02:02:22;99462.41;;;25.47;54.44
63700;BME280;49845;47.130;142.766;2022-08-19T02:05:01;99458.16;;;25.34;54.64
63700;BME280;49845;47.130;142.766;2022-08-19T02:07:48;99449.72;;;25.29;55.06
63700;BME280;49845;47.130;142.766;2022-08-19T02:10:33;99452.25;;;25.21;55.62
63700;BME280;49845;47.130;142.766;2022-08-19T02:13:21;99446.34;;;25.27;56.10
63700;BME280;49845;47.130;142.766;2022-08-19T02:15:58;99454.78;;;25.32;55.29
63700;BME280;49845;47.130;142.766;2022-08-19T02:18:41;99416.78;;;25.19;55.48
63700;BME280;49845;47.130;142.766;2022-08-19T02:21:30;99437.75;;;25.33;54.87
63700;BME280;49845;47.130;142.766;2022-08-19T02:24:16;99393.09;;;25.05;55.27
63700;BME280;49845;47.130;142.766;2022-08-19T02:27:00;99434.22;;;25.23;55.61
63700;BME280;49845;47.130;142.766;2022-08-19T02:29:58;99442.34;;;25.12;55.54
63700;BME280;49845;47.130;142.766;2022-08-19T02:32:45;99446.25;;;25.08;56.39
63700;BME280;49845;47.130;142.766;2022-08-19T02:35:47;99427.84;;;25.05;56.58
63700;BME280;49845;47.130;142.766;2022-08-19T02:38:40;99440.69;;;25.30;56.14
63700;BME280;49845;47.130;142.766;2022-08-19T02:42:03;99439.03;;;25.29;56.14
63700;BME280;49845;47.130;142.766;2022-08-19T02:49:24;99430.84;;;25.21;56.06
63700;BME280;49845;47.130;142.766;2022-08-19T02:56:05;99442.81;;;25.36;55.95
63700;BME280;49845;47.130;142.766;2022-08-19T02:59:57;99453.09;;;25.51;56.00
63700;BME280;49845;47.130;142.766;2022-08-19T03:03:22;99448.28;;;25.25;55.59
63700;BME280;49845;47.130;142.766;2022-08-19T03:06:36;99443.06;;;25.14;55.32
63700;BME280;49845;47.130;142.766;2022-08-19T03:09:42;99428.84;;;25.04;56.15
63700;BME280;49845;47.130;142.766;2022-08-19T03:12:36;99443.75;;;25.16;55.15
63700;BME280;49845;47.130;142.766;2022-08-19T03:15:59;99382.94;;;24.79;55.75
63700;BME280;49845;47.130;142.766;2022-08-19T03:19:00;99432.19;;;25.06;55.61
63700;BME280;49845;47.130;142.766;2022-08-19T03:21:56;99432.78;;;25.09;56.18
63700;BME280;49845;47.130;142.766;2022-08-19T03:28:32;99447.75;;;25.31;55.54
63700;BME280;49845;47.130;142.766;2022-08-19T03:32:02;99443.09;;;25.33;54.91
63700;BME280;49845;47.130;142.766;2022-08-19T03:45:00;99449.06;;;24.96;55.22
63700;BME280;49845;47.130;142.766;2022-08-19T03:48:05;99413.28;;;24.78;54.90
63700;BME280;49845;47.130;142.766;2022-08-19T03:51:26;99436.28;;;25.10;55.00
63700;BME280;49845;47.130;142.766;2022-08-19T03:54:41;99450.84;;;25.36;54.80
63700;BME280;49845;47.130;142.766;2022-08-19T03:58:13;99456.75;;;25.50;53.84
63700;BME280;49845;47.130;142.766;2022-08-19T04:05:51;99457.59;;;25.60;52.10
63700;BME280;49845;47.130;142.766;2022-08-19T04:08:15;99446.34;;;25.47;53.46
63700;BME280;49845;47.130;142.766;2022-08-19T04:11:33;99422.41;;;25.26;53.83
63700;BME280;49845;47.130;142.766;2022-08-19T04:15:13;99427.91;;;25.24;54.95
63700;BME280;49845;47.130;142.766;2022-08-19T04:18:19;99443.78;;;25.35;53.34
63700;BME280;49845;47.130;142.766;2022-08-19T04:25:16;99441.47;;;25.02;54.45
63700;BME280;49845;47.130;142.766;2022-08-19T04:28:29;99414.75;;;24.92;53.79
63700;BME280;49845;47.130;142.766;2022-08-19T04:38:58;99432.81;;;25.19;53.04
63700;BME280;49845;47.130;142.766;2022-08-19T04:42:10;99448.78;;;25.00;53.25
63700;BME280;49845;47.130;142.766;2022-08-19T04:45:36;99434.63;;;24.68;54.12
63700;BME280;49845;47.130;142.766;2022-08-19T04:49:19;99430.13;;;24.38;54.44
63700;BME280;49845;47.130;142.766;2022-08-19T04:52:50;99435.06;;;24.43;55.73
63700;BME280;49845;47.130;142.766;2022-08-19T05:02:58;99406.47;;;24.54;54.29
63700;BME280;49845;47.130;142.766;2022-08-19T05:06:20;99430.16;;;24.79;54.16
63700;BME280;49845;47.130;142.766;2022-08-19T05:09:41;99413.19;;;24.89;53.31
63700;BME280;49845;47.130;142.766;2022-08-19T05:16:24;99414.44;;;24.85;52.94
63700;BME280;49845;47.130;142.766;2022-08-19T05:23:44;99406.53;;;24.74;54.53
63700;BME280;49845;47.130;142.766;2022-08-19T05:30:57;99392.69;;;24.49;54.20
63700;BME280;49845;47.130;142.766;2022-08-19T05:37:20;99381.19;;;23.97;55.08
63700;BME280;49845;47.130;142.766;2022-08-19T05:40:21;99389.00;;;23.89;55.41
63700;BME280;49845;47.130;142.766;2022-08-19T05:43:24;99375.56;;;23.58;56.11
63700;BME280;49845;47.130;142.766;2022-08-19T05:46:48;99389.88;;;23.57;56.35
63700;BME280;49845;47.130;142.766;2022-08-19T05:50:11;99379.28;;;23.67;56.34
63700;BME280;49845;47.130;142.766;2022-08-19T05:53:08;99392.25;;;23.72;56.71
63700;BME280;49845;47.130;142.766;2022-08-19T05:56:20;99358.47;;;23.61;57.22
63700;BME280;49845;47.130;142.766;2022-08-19T05:59:18;99348.31;;;23.55;57.18
63700;BME280;49845;47.130;142.766;2022-08-19T06:02:19;99381.56;;;23.72;57.35
63700;BME280;49845;47.130;142.766;2022-08-19T06:06:17;99380.41;;;23.64;57.37
63700;BME280;49845;47.130;142.766;2022-08-19T06:12:48;99371.78;;;23.40;57.24
63700;BME280;49845;47.130;142.766;2022-08-19T06:16:45;99368.09;;;23.52;58.06
63700;BME280;49845;47.130;142.766;2022-08-19T06:20:18;99355.13;;;23.68;58.33
63700;BME280;49845;47.130;142.766;2022-08-19T06:23:34;99368.03;;;23.63;57.36
63700;BME280;49845;47.130;142.766;2022-08-19T06:26:34;99357.75;;;23.38;58.02
63700;BME280;49845;47.130;142.766;2022-08-19T06:29:39;99359.28;;;23.19;58.82
63700;BME280;49845;47.130;142.766;2022-08-19T06:32:22;99366.38;;;23.09;59.53
63700;BME280;49845;47.130;142.766;2022-08-19T06:35:25;99361.28;;;22.95;59.77
63700;BME280;49845;47.130;142.766;2022-08-19T06:38:03;99365.94;;;22.81;59.79
63700;BME280;49845;47.130;142.766;2022-08-19T06:40:46;99351.44;;;22.74;60.42
63700;BME280;49845;47.130;142.766;2022-08-19T06:44:01;99350.97;;;22.69;61.11
63700;BME280;49845;47.130;142.766;2022-08-19T06:46:55;99350.44;;;22.75;60.97
63700;BME280;49845;47.130;142.766;2022-08-19T06:49:42;99327.25;;;22.55;60.03
63700;BME280;49845;47.130;142.766;2022-08-19T06:52:34;99354.56;;;22.68;60.84
63700;BME280;49845;47.130;142.766;2022-08-19T06:55:15;99364.53;;;22.55;60.47
63700;BME280;49845;47.130;142.766;2022-08-19T06:58:01;99363.81;;;22.30;61.28
63700;BME280;49845;47.130;142.766;2022-08-19T07:00:48;99366.00;;;22.25;62.47
63700;BME280;49845;47.130;142.766;2022-08-19T07:03:28;99374.91;;;22.13;62.54
63700;BME280;49845;47.130;142.766;2022-08-19T07:06:05;99373.94;;;22.03;62.49
63700;BME280;49845;47.130;142.766;2022-08-19T07:09:04;99366.19;;;21.88;62.54
63700;BME280;49845;47.130;142.766;2022-08-19T07:11:51;99381.78;;;21.82;62.92
63700;BME280;49845;47.130;142.766;2022-08-19T07:14:29;99385.53;;;21.79;63.04
63700;BME280;49845;47.130;142.766;2022-08-19T07:17:13;99396.97;;;21.68;63.22
63700;BME280;49845;47.130;142.766;2022-08-19T07:19:48;99394.66;;;21.64;63.60
63700;BME280;49845;47.130;142.766;2022-08-19T07:23:05;99390.41;;;21.61;63.46
63700;BME280;49845;47.130;142.766;2022-08-19T07:25:57;99386.44;;;21.56;63.98
63700;BME280;49845;47.130;142.766;2022-08-19T07:28:39;99386.44;;;21.56;64.33
63700;BME280;49845;47.130;142.766;2022-08-19T07:31:30;99361.00;;;21.40;64.57
63700;BME280;49845;47.130;142.766;2022-08-19T07:34:29;99383.28;;;21.50;65.38
63700;BME280;49845;47.130;142.766;2022-08-19T07:37:07;99370.97;;;21.49;65.71
63700;BME280;49845;47.130;142.766;2022-08-19T07:40:12;99366.63;;;21.36;65.76
63700;BME280;49845;47.130;142.766;2022-08-19T07:42:58;99367.22;;;21.28;66.19
63700;BME280;49845;47.130;142.766;2022-08-19T07:45:35;99384.84;;;21.29;66.95
63700;BME280;49845;47.130;142.766;2022-08-19T07:48:24;99387.97;;;21.23;67.20
63700;BME280;49845;47.130;142.766;2022-08-19T07:51:24;99396.19;;;21.20;67.46
63700;BME280;49845;47.130;142.766;2022-08-19T07:54:07;99384.75;;;21.06;67.48
63700;BME280;49845;47.130;142.766;2022-08-19T07:56:52;99402.16;;;21.10;67.72
63700;BME280;49845;47.130;142.766;2022-08-19T08:00:02;99394.41;;;21.31;68.00
63700;BME280;49845;47.130;142.766;2022-08-19T08:03:12;99355.59;;;21.18;68.16
63700;BME280;49845;47.130;142.766;2022-08-19T08:06:33;99389.22;;;21.30;68.22
63700;BME280;49845;47.130;142.766;2022-08-19T08:09:31;99383.22;;;21.15;68.82
63700;BME280;49845;47.130;142.766;2022-08-19T08:12:36;99379.44;;;21.06;69.54
63700;BME280;49845;47.130;142.766;2022-08-19T08:15:40;99361.47;;;20.86;70.39
63700;BME280;49845;47.130;142.766;2022-08-19T08:18:18;99310.13;;;20.37;70.86
63700;BME280;49845;47.130;142.766;2022-08-19T08:21:06;99371.97;;;20.63;71.54
63700;BME280;49845;47.130;142.766;2022-08-19T08:23:46;99382.81;;;20.60;71.53
63700;BME280;49845;47.130;142.766;2022-08-19T08:26:24;99371.88;;;20.52;72.03
63700;BME280;49845;47.130;142.766;2022-08-19T08:29:24;99368.19;;;20.42;72.35
63700;BME280;49845;47.130;142.766;2022-08-19T08:32:04;99368.38;;;20.39;72.87
63700;BME280;49845;47.130;142.766;2022-08-19T08:35:16;99373.69;;;20.26;73.43
63700;BME280;49845;47.130;142.766;2022-08-19T08:38:03;99347.66;;;20.07;73.86
63700;BME280;49845;47.130;142.766;2022-08-19T08:40:50;99369.91;;;20.17;74.23
63700;BME280;49845;47.130;142.766;2022-08-19T08:44:20;99365.25;;;20.08;74.42
63700;BME280;49845;47.130;142.766;2022-08-19T08:47:23;99358.66;;;20.01;74.66
63700;BME280;49845;47.130;142.766;2022-08-19T08:50:17;99356.03;;;20.01;75.09
63700;BME280;49845;47.130;142.766;2022-08-19T08:53:30;99351.69;;;20.00;75.18
63700;BME280;49845;47.130;142.766;2022-08-19T08:59:41;99347.00;;;19.91;75.39
63700;BME280;49845;47.130;142.766;2022-08-19T09:02:41;99340.66;;;19.80;75.84
63700;BME280;49845;47.130;142.766;2022-08-19T09:05:45;99338.75;;;19.82;76.20
63700;BME280;49845;47.130;142.766;2022-08-19T09:08:47;99340.22;;;19.87;75.61
63700;BME280;49845;47.130;142.766;2022-08-19T09:11:39;99336.63;;;19.88;75.73
63700;BME280;49845;47.130;142.766;2022-08-19T09:17:41;99338.31;;;19.76;75.55
63700;BME280;49845;47.130;142.766;2022-08-19T09:20:20;99342.53;;;19.66;75.32
63700;BME280;49845;47.130;142.766;2022-08-19T09:22:58;99360.63;;;19.59;75.09
63700;BME280;49845;47.130;142.766;2022-08-19T09:25:58;99365.22;;;19.57;75.46
63700;BME280;49845;47.130;142.766;2022-08-19T09:28:40;99369.00;;;19.53;75.53
63700;BME280;49845;47.130;142.766;2022-08-19T09:31:17;99367.72;;;19.46;75.57
63700;BME280;49845;47.130;142.766;2022-08-19T09:33:58;99369.63;;;19.44;75.62
63700;BME280;49845;47.130;142.766;2022-08-19T09:36:48;99367.94;;;19.43;75.75
63700;BME280;49845;47.130;142.766;2022-08-19T09:39:40;99365.28;;;19.43;75.71
63700;BME280;49845;47.130;142.766;2022-08-19T09:42:20;99371.53;;;19.42;75.82
63700;BME280;49845;47.130;142.766;2022-08-19T09:45:22;99361.34;;;19.35;76.09
63700;BME280;49845;47.130;142.766;2022-08-19T09:48:30;99348.72;;;19.26;76.29
63700;BME280;49845;47.130;142.766;2022-08-19T09:51:27;99335.16;;;19.18;76.34
63700;BME280;49845;47.130;142.766;2022-08-19T09:54:42;99350.53;;;19.26;76.99
63700;BME280;49845;47.130;142.766;2022-08-19T09:57:24;99355.19;;;19.22;76.83
63700;BME280;49845;47.130;142.766;2022-08-19T10:00:08;99363.41;;;19.05;77.32
63700;BME280;49845;47.130;142.766;2022-08-19T10:03:13;99368.28;;;19.11;77.86
63700;BME280;49845;47.130;142.766;2022-08-19T10:06:02;99361.69;;;19.04;77.76
63700;BME280;49845;47.130;142.766;2022-08-19T10:20:04;99390.47;;;18.95;78.58
63700;BME280;49845;47.130;142.766;2022-08-19T10:22:49;99390.03;;;19.02;78.86
63700;BME280;49845;47.130;142.766;2022-08-19T10:25:41;99386.69;;;19.00;78.92
63700;BME280;49845;47.130;142.766;2022-08-19T10:28:41;99375.50;;;18.94;79.18
63700;BME280;49845;47.130;142.766;2022-08-19T10:43:42;99354.97;;;18.71;80.05
63700;BME280;49845;47.130;142.766;2022-08-19T10:46:49;99387.66;;;18.84;80.32
63700;BME280;49845;47.130;142.766;2022-08-19T10:49:58;99368.94;;;18.73;80.38
63700;BME280;49845;47.130;142.766;2022-08-19T10:52:56;99382.06;;;18.74;80.30
63700;BME280;49845;47.130;142.766;2022-08-19T10:59:15;99330.47;;;18.40;80.66
63700;BME280;49845;47.130;142.766;2022-08-19T11:02:06;99358.94;;;18.64;80.61
63700;BME280;49845;47.130;142.766;2022-08-19T11:04:51;99376.13;;;18.71;80.84
63700;BME280;49845;47.130;142.766;2022-08-19T11:07:46;99365.75;;;18.68;81.28
63700;BME280;49845;47.130;142.766;2022-08-19T11:10:29;99366.13;;;18.62;81.54
63700;BME280;49845;47.130;142.766;2022-08-19T11:13:33;99361.44;;;18.52;81.76
63700;BME280;49845;47.130;142.766;2022-08-19T11:16:14;99315.75;;;18.22;81.71
63700;BME280;49845;47.130;142.766;2022-08-19T11:19:03;99381.28;;;18.45;82.02
63700;BME280;49845;47.130;142.766;2022-08-19T11:21:46;99378.66;;;18.31;82.46
63700;BME280;49845;47.130;142.766;2022-08-19T11:24:59;99373.38;;;18.31;82.87
63700;BME280;49845;47.130;142.766;2022-08-19T11:28:01;99377.13;;;18.27;83.22
63700;BME280;49845;47.130;142.766;2022-08-19T11:30:48;99382.16;;;18.17;83.64
63700;BME280;49845;47.130;142.766;2022-08-19T11:33:26;99376.00;;;18.17;84.14
63700;BME280;49845;47.130;142.766;2022-08-19T11:36:17;99374.97;;;18.19;84.41
63700;BME280;49845;47.130;142.766;2022-08-19T11:38:55;99370.34;;;18.23;84.58
63700;BME280;49845;47.130;142.766;2022-08-19T11:41:36;99350.31;;;18.19;84.38
63700;BME280;49845;47.130;142.766;2022-08-19T11:44:29;99357.69;;;18.28;84.03
63700;BME280;49845;47.130;142.766;2022-08-19T11:47:09;99359.38;;;18.29;84.65
63700;BME280;49845;47.130;142.766;2022-08-19T11:49:54;99355.97;;;18.27;84.43
63700;BME280;49845;47.130;142.766;2022-08-19T11:52:31;99360.41;;;18.26;84.28
63700;BME280;49845;47.130;142.766;2022-08-19T11:55:14;99359.97;;;18.20;84.50
63700;BME280;49845;47.130;142.766;2022-08-19T11:59:00;99356.19;;;18.09;84.95
63700;BME280;49845;47.130;142.766;2022-08-19T12:02:16;99359.50;;;18.13;85.01
63700;BME280;49845;47.130;142.766;2022-08-19T12:08:56;99318.91;;;17.85;85.74
63700;BME280;49845;47.130;142.766;2022-08-19T12:11:41;99346.75;;;18.05;85.90
63700;BME280;49845;47.130;142.766;2022-08-19T12:14:19;99342.97;;;18.09;86.01
63700;BME280;49845;47.130;142.766;2022-08-19T12:17:11;99335.78;;;18.11;86.04
63700;BME280;49845;47.130;142.766;2022-08-19T12:20:13;99330.50;;;18.11;85.96
63700;BME280;49845;47.130;142.766;2022-08-19T12:23:04;99321.81;;;18.09;86.20
63700;BME280;49845;47.130;142.766;2022-08-19T12:25:49;99326.94;;;18.13;86.05
63700;BME280;49845;47.130;142.766;2022-08-19T12:28:30;99339.00;;;18.17;86.20
63700;BME280;49845;47.130;142.766;2022-08-19T12:31:23;99328.63;;;18.14;86.45
63700;BME280;49845;47.130;142.766;2022-08-19T12:34:10;99328.41;;;18.17;86.33
63700;BME280;49845;47.130;142.766;2022-08-19T12:37:09;99319.00;;;18.13;86.23
63700;BME280;49845;47.130;142.766;2022-08-19T12:39:51;99318.03;;;18.14;86.33
63700;BME280;49845;47.130;142.766;2022-08-19T12:42:45;99305.94;;;18.09;86.40
63700;BME280;49845;47.130;142.766;2022-08-19T12:45:27;99304.47;;;18.05;86.63
63700;BME280;49845;47.130;142.766;2022-08-19T12:48:26;99307.09;;;18.05;86.69
63700;BME280;49845;47.130;142.766;2022-08-19T12:51:08;99303.06;;;18.00;86.60
63700;BME280;49845;47.130;142.766;2022-08-19T12:53:50;99257.25;;;17.71;86.89
63700;BME280;49845;47.130;142.766;2022-08-19T12:56:36;99295.28;;;17.97;86.92
63700;BME280;49845;47.130;142.766;2022-08-19T12:59:20;99298.06;;;17.95;87.12
63700;BME280;49845;47.130;142.766;2022-08-19T13:02:15;99296.53;;;17.91;87.35
63700;BME280;49845;47.130;142.766;2022-08-19T13:05:09;99297.84;;;17.84;87.13
63700;BME280;49845;47.130;142.766;2022-08-19T13:07:54;99245.75;;;17.57;87.22
63700;BME280;49845;47.130;142.766;2022-08-19T13:10:35;99263.31;;;17.73;87.25
63700;BME280;49845;47.130;142.766;2022-08-19T13:13:14;99287.28;;;17.84;87.21
63700;BME280;49845;47.130;142.766;2022-08-19T13:16:02;99282.34;;;17.78;87.39
63700;BME280;49845;47.130;142.766;2022-08-19T13:19:19;99284.25;;;17.76;87.42
63700;BME280;49845;47.130;142.766;2022-08-19T13:22:41;99278.38;;;17.71;87.73
63700;BME280;49845;47.130;142.766;2022-08-19T13:25:28;99275.00;;;17.68;87.74
63700;BME280;49845;47.130;142.766;2022-08-19T13:28:11;99274.22;;;17.66;87.90
63700;BME280;49845;47.130;142.766;2022-08-19T13:31:04;99269.41;;;17.59;87.90
63700;BME280;49845;47.130;142.766;2022-08-19T13:34:03;99259.88;;;17.56;88.21
63700;BME280;49845;47.130;142.766;2022-08-19T13:36:41;99252.91;;;17.55;88.18
63700;BME280;49845;47.130;142.766;2022-08-19T13:39:28;99246.88;;;17.53;88.28
63700;BME280;49845;47.130;142.766;2022-08-19T13:42:05;99235.75;;;17.48;88.71
63700;BME280;49845;47.130;142.766;2022-08-19T13:44:45;99221.59;;;17.49;88.91
63700;BME280;49845;47.130;142.766;2022-08-19T13:47:31;99213.94;;;17.44;89.08
63700;BME280;49845;47.130;142.766;2022-08-19T13:50:35;99169.91;;;17.16;89.19
63700;BME280;49845;47.130;142.766;2022-08-19T13:53:12;99215.75;;;17.44;89.38
63700;BME280;49845;47.130;142.766;2022-08-19T13:55:58;99203.28;;;17.46;89.18
63700;BME280;49845;47.130;142.766;2022-08-19T13:58:52;99196.50;;;17.42;89.27
63700;BME280;49845;47.130;142.766;2022-08-19T14:01:37;99185.00;;;17.43;89.23
63700;BME280;49845;47.130;142.766;2022-08-19T14:04:34;99175.09;;;17.46;89.40
63700;BME280;49845;47.130;142.766;2022-08-19T14:07:12;99167.28;;;17.45;89.30
63700;BME280;49845;47.130;142.766;2022-08-19T14:09:58;99168.97;;;17.46;89.35
63700;BME280;49845;47.130;142.766;2022-08-19T14:12:44;99136.72;;;17.27;89.24
63700;BME280;49845;47.130;142.766;2022-08-19T14:15:23;99161.03;;;17.32;89.65
63700;BME280;49845;47.130;142.766;2022-08-19T14:18:28;99173.13;;;17.36;89.57
63700;BME280;49845;47.130;142.766;2022-08-19T14:21:15;99162.75;;;17.33;89.79
63700;BME280;49845;47.130;142.766;2022-08-19T14:24:12;99157.47;;;17.33;89.83
63700;BME280;49845;47.130;142.766;2022-08-19T14:27:24;99164.25;;;17.37;89.50
63700;BME280;49845;47.130;142.766;2022-08-19T14:30:31;99132.66;;;17.21;89.46
63700;BME280;49845;47.130;142.766;2022-08-19T14:33:48;99161.72;;;17.35;89.33
63700;BME280;49845;47.130;142.766;2022-08-19T14:36:28;99164.63;;;17.31;89.57
63700;BME280;49845;47.130;142.766;2022-08-19T14:39:09;99160.28;;;17.30;89.79
63700;BME280;49845;47.130;142.766;2022-08-19T14:41:56;99165.56;;;17.30;89.89
63700;BME280;49845;47.130;142.766;2022-08-19T14:44:39;99175.41;;;17.28;89.94
63700;BME280;49845;47.130;142.766;2022-08-19T14:47:17;99170.13;;;17.28;90.02
63700;BME280;49845;47.130;142.766;2022-08-19T14:49:55;99170.38;;;17.23;90.05
63700;BME280;49845;47.130;142.766;2022-08-19T14:52:36;99153.72;;;17.22;90.04
63700;BME280;49845;47.130;142.766;2022-08-19T14:55:11;99155.88;;;17.16;90.33
63700;BME280;49845;47.130;142.766;2022-08-19T14:57:57;99142.75;;;17.14;90.63
63700;BME280;49845;47.130;142.766;2022-08-19T15:01:18;99114.09;;;17.08;90.41
63700;BME280;49845;47.130;142.766;2022-08-19T15:11:58;99112.78;;;17.15;90.62
63700;BME280;49845;47.130;142.766;2022-08-19T15:15:23;99133.50;;;17.21;90.35
63700;BME280;49845;47.130;142.766;2022-08-19T15:18:20;99127.19;;;17.24;89.99
63700;BME280;49845;47.130;142.766;2022-08-19T15:21:02;99116.56;;;17.25;89.75
63700;BME280;49845;47.130;142.766;2022-08-19T15:23:57;99098.63;;;17.16;89.69
63700;BME280;49845;47.130;142.766;2022-08-19T15:26:39;99098.84;;;17.13;89.27
63700;BME280;49845;47.130;142.766;2022-08-19T15:29:23;99100.50;;;17.14;89.16
63700;BME280;49845;47.130;142.766;2022-08-19T15:32:02;99083.56;;;17.18;88.86
63700;BME280;49845;47.130;142.766;2022-08-19T15:34:44;99080.91;;;17.18;88.57
63700;BME280;49845;47.130;142.766;2022-08-19T15:37:29;99060.38;;;17.09;88.58
63700;BME280;49845;47.130;142.766;2022-08-19T15:40:08;99088.34;;;17.26;88.27
63700;BME280;49845;47.130;142.766;2022-08-19T15:43:19;99067.88;;;17.30;88.25
63700;BME280;49845;47.130;142.766;2022-08-19T15:46:05;99063.47;;;17.30;88.33
63700;BME280;49845;47.130;142.766;2022-08-19T15:48:51;99076.38;;;17.35;87.63
63700;BME280;49845;47.130;142.766;2022-08-19T15:51:33;99063.75;;;17.40;87.42
63700;BME280;49845;47.130;142.766;2022-08-19T15:54:25;99060.91;;;17.29;87.44
63700;BME280;49845;47.130;142.766;2022-08-19T15:57:16;99072.59;;;17.39;87.34
63700;BME280;49845;47.130;142.766;2022-08-19T16:00:23;99064.66;;;17.39;87.41
63700;BME280;49845;47.130;142.766;2022-08-19T16:03:38;99040.38;;;17.19;87.50
63700;BME280;49845;47.130;142.766;2022-08-19T16:06:47;99050.34;;;17.29;87.75
63700;BME280;49845;47.130;142.766;2022-08-19T16:09:29;99057.31;;;17.30;87.73
63700;BME280;49845;47.130;142.766;2022-08-19T16:12:17;99048.69;;;17.28;87.68
63700;BME280;49845;47.130;142.766;2022-08-19T16:15:06;99035.66;;;17.24;87.76
63700;BME280;49845;47.130;142.766;2022-08-19T16:18:10;99036.81;;;17.20;87.61
63700;BME280;49845;47.130;142.766;2022-08-19T16:20:58;99027.09;;;17.21;88.11
63700;BME280;49845;47.130;142.766;2022-08-19T16:23:47;99023.59;;;17.20;87.97
63700;BME280;49845;47.130;142.766;2022-08-19T16:27:09;98991.41;;;17.01;88.15
63700;BME280;49845;47.130;142.766;2022-08-19T16:30:06;99011.94;;;17.10;88.38
63700;BME280;49845;47.130;142.766;2022-08-19T16:32:58;99011.94;;;17.10;88.39
63700;BME280;49845;47.130;142.766;2022-08-19T16:35:59;99000.34;;;16.98;88.38
63700;BME280;49845;47.130;142.766;2022-08-19T16:38:54;99020.03;;;17.07;87.93
63700;BME280;49845;47.130;142.766;2022-08-19T16:41:40;99028.91;;;17.06;87.13
63700;BME280;49845;47.130;142.766;2022-08-19T16:44:18;99025.50;;;17.04;87.18
63700;BME280;49845;47.130;142.766;2022-08-19T16:47:00;99025.13;;;17.10;86.95
63700;BME280;49845;47.130;142.766;2022-08-19T16:49:51;99031.88;;;17.14;87.05
63700;BME280;49845;47.130;142.766;2022-08-19T16:52:46;99029.44;;;17.11;87.27
63700;BME280;49845;47.130;142.766;2022-08-19T16:55:33;99023.63;;;17.06;87.21
63700;BME280;49845;47.130;142.766;2022-08-19T16:58:27;99005.00;;;16.95;87.43
63700;BME280;49845;47.130;142.766;2022-08-19T17:01:06;98991.59;;;16.84;87.54
63700;BME280;49845;47.130;142.766;2022-08-19T17:03:44;99005.34;;;16.89;87.26
63700;BME280;49845;47.130;142.766;2022-08-19T17:06:30;99003.66;;;16.88;87.51
63700;BME280;49845;47.130;142.766;2022-08-19T17:09:07;99010.63;;;16.89;87.74
63700;BME280;49845;47.130;142.766;2022-08-19T17:11:58;99001.13;;;16.86;87.98
63700;BME280;49845;47.130;142.766;2022-08-19T17:14:41;99002.91;;;17.00;88.01
63700;BME280;49845;47.130;142.766;2022-08-19T17:17:28;98989.78;;;16.98;88.13
63700;BME280;49845;47.130;142.766;2022-08-19T17:20:27;98976.69;;;16.97;87.75
63700;BME280;49845;47.130;142.766;2022-08-19T17:23:12;98998.75;;;17.10;87.57
63700;BME280;49845;47.130;142.766;2022-08-19T17:26:16;98984.22;;;17.03;87.77
63700;BME280;49845;47.130;142.766;2022-08-19T17:28:51;98972.66;;;16.91;87.93
63700;BME280;49845;47.130;142.766;2022-08-19T17:31:44;98997.22;;;17.06;88.19
63700;BME280;49845;47.130;142.766;2022-08-19T17:34:22;98982.56;;;16.88;88.34